Time;durP1;ratioP1;P1;durP2;ratioP2;P2;SDS_P1;SDS_P2;PMS_P1;PMS_P2;Temp;Humidity;BMP_temperature;BMP_pressure;BME280_temperature;BME280_humidity;BME280_pressure;Samples;Min_cycle;Max_cycle;Signal;HPM_P1;HPM_P2
2021/08/16 00:01:28;;;;;;;8.20;6.78;;;;;;;17.04;59.95;93685.91;5091905;28;20039;-59
2021/08/16 00:03:54;;;;;;;10.10;6.60;;;;;;;16.92;59.98;93679.41;5071030;28;20033;-63
2021/08/16 00:06:19;;;;;;;16.15;7.75;;;;;;;16.88;60.03;93692.31;5071996;28;20040;-63
2021/08/16 00:08:45;;;;;;;8.05;6.18;;;;;;;16.89;59.83;93686.16;5071729;28;20028;-63
2021/08/16 00:11:10;;;;;;;11.43;7.32;;;;;;;16.87;60.53;93685.28;5071687;28;20092;-63
2021/08/16 00:13:36;;;;;;;7.53;6.82;;;;;;;16.80;60.21;93678.53;5068195;28;20060;-63
2021/08/16 00:16:01;;;;;;;10.30;6.68;;;;;;;16.78;60.31;93677.63;5064583;28;20459;-63
2021/08/16 00:18:27;;;;;;;7.78;6.95;;;;;;;16.70;60.91;93672.19;5063611;28;20041;-63
2021/08/16 00:20:53;;;;;;;10.45;6.68;;;;;;;16.79;60.55;93665.16;5063879;28;20024;-62
2021/08/16 00:23:19;;;;;;;7.13;6.43;;;;;;;16.72;60.91;93666.75;5061277;28;20017;-53
2021/08/16 00:25:45;;;;;;;8.02;7.00;;;;;;;16.38;61.61;93669.72;5061329;28;20024;-52
2021/08/16 00:28:10;;;;;;;10.38;7.70;;;;;;;16.48;61.53;93682.38;5070932;28;20035;-52
2021/08/16 00:30:35;;;;;;;7.65;6.90;;;;;;;16.47;61.08;93680.91;5071169;28;20025;-60
2021/08/16 00:33:01;;;;;;;8.05;7.03;;;;;;;16.42;61.42;93676.34;5078894;28;20019;-59
2021/08/16 00:35:27;;;;;;;12.02;7.80;;;;;;;16.41;61.68;93680.44;5090369;28;20039;-59
2021/08/16 00:37:52;;;;;;;11.25;7.50;;;;;;;16.42;61.59;93678.38;5089844;28;20031;-60
2021/08/16 00:40:18;;;;;;;7.43;6.70;;;;;;;16.23;62.01;93672.75;5091026;28;20421;-60
2021/08/16 00:42:43;;;;;;;9.45;7.65;;;;;;;16.25;62.15;93679.22;5090953;28;20024;-60
2021/08/16 00:45:09;;;;;;;8.32;7.18;;;;;;;16.12;62.47;93671.25;5090430;28;20028;-59
2021/08/16 00:47:37;;;;;;;17.80;8.25;;;;;;;16.11;62.36;93672.56;5090938;28;20026;-59
2021/08/16 00:50:03;;;;;;;9.35;7.53;;;;;;;15.99;62.45;93649.34;5091053;28;20420;-59
2021/08/16 00:52:28;;;;;;;9.02;7.65;;;;;;;16.13;62.37;93664.38;5091086;28;20447;-59
2021/08/16 00:54:54;;;;;;;8.55;7.65;;;;;;;16.23;62.10;93667.91;5089782;28;20016;-59
2021/08/16 00:57:21;;;;;;;10.52;7.63;;;;;;;16.05;62.25;93649.78;5090904;28;20569;-59
2021/08/16 00:59:47;;;;;;;8.23;7.25;;;;;;;16.12;62.38;93659.34;5090675;28;20020;-59
2021/08/16 01:02:12;;;;;;;26.38;8.30;;;;;;;16.19;62.25;93658.50;5084817;28;20024;-59
2021/08/16 01:04:38;;;;;;;20.15;8.38;;;;;;;16.15;62.26;93664.50;5070116;28;20047;-59
2021/08/16 01:07:04;;;;;;;7.45;6.75;;;;;;;16.17;61.83;93664.66;5070612;28;20025;-59
2021/08/16 01:09:30;;;;;;;8.15;7.25;;;;;;;16.02;61.88;93659.31;5078334;28;20047;-59
2021/08/16 01:11:55;;;;;;;8.15;7.00;;;;;;;16.02;61.51;93662.13;5090485;28;20016;-59
2021/08/16 01:14:21;;;;;;;7.95;6.85;;;;;;;15.99;61.67;93660.47;5075632;28;20099;-59
2021/08/16 01:16:47;;;;;;;7.95;7.15;;;;;;;15.73;62.29;93638.94;5064230;28;20481;-59
2021/08/16 01:19:13;;;;;;;12.75;7.13;;;;;;;15.84;62.37;93644.72;5070288;28;20024;-59
2021/08/16 01:21:38;;;;;;;8.63;7.00;;;;;;;15.98;62.14;93652.72;5070088;28;20042;-59
2021/08/16 01:24:05;;;;;;;9.25;7.05;;;;;;;15.94;62.27;93659.44;5070270;28;20150;-59
2021/08/16 01:26:34;;;;;;;12.00;7.68;;;;;;;15.90;62.32;93655.59;5070473;28;20052;-59
2021/08/16 01:29:00;;;;;;;;;;;;;;;15.79;62.52;93653.34;5070768;28;20449;-59
2021/08/16 01:31:25;;;;;;;9.18;6.72;;;;;;;15.62;62.61;93650.59;5070319;28;19936;-59
2021/08/16 01:33:51;;;;;;;9.57;6.93;;;;;;;15.54;62.84;93652.75;5070184;28;20551;-58
2021/08/16 01:36:16;;;;;;;9.52;6.88;;;;;;;15.59;63.03;93646.19;5069836;28;20459;-58
2021/08/16 01:38:43;;;;;;;7.88;6.75;;;;;;;15.43;62.82;93625.41;5070109;28;20021;-58
2021/08/16 01:41:09;;;;;;;8.00;6.82;;;;;;;15.49;63.43;93645.38;5067590;28;20025;-58
2021/08/16 01:43:35;;;;;;;7.50;6.80;;;;;;;15.44;63.60;93640.84;5070146;28;20099;-58
2021/08/16 01:46:00;;;;;;;17.80;7.93;;;;;;;15.48;63.39;93646.72;5070132;28;20107;-58
2021/08/16 01:48:27;;;;;;;8.45;7.55;;;;;;;15.48;63.35;93644.69;5069878;28;20477;-54
2021/08/16 01:50:52;;;;;;;10.63;7.80;;;;;;;15.38;63.99;93648.66;5069636;28;20038;-52
2021/08/16 01:53:18;;;;;;;14.75;7.50;;;;;;;15.39;63.82;93639.75;5068668;28;20131;-54
2021/08/16 02:13:47;;;;;;;11.77;8.23;;;;;;;15.68;63.50;93635.09;5066449;28;20607;-59
2021/08/16 02:16:13;;;;;;;8.88;7.35;;;;;;;15.55;62.48;93640.31;5061338;28;20117;-59
2021/08/16 02:18:39;;;;;;;12.18;8.00;;;;;;;15.50;63.34;93639.28;5064177;28;20134;-58
2021/08/16 02:21:04;;;;;;;11.02;7.28;;;;;;;15.30;64.94;93642.47;5066553;28;20020;-59
2021/08/16 02:23:31;;;;;;;9.18;6.78;;;;;;;15.40;64.29;93646.06;5067043;28;20031;-59
2021/08/16 02:25:56;;;;;;;11.00;6.95;;;;;;;15.24;64.77;93642.72;5066967;28;20117;-59
2021/08/16 02:28:21;;;;;;;9.45;7.72;;;;;;;15.24;65.81;93645.50;5067053;28;20028;-59
2021/08/16 02:30:47;;;;;;;8.32;6.88;;;;;;;15.22;64.26;93647.38;5066786;28;20110;-56
2021/08/16 02:33:14;;;;;;;9.00;7.07;;;;;;;15.14;63.66;93645.41;5066535;28;20409;-55
2021/08/16 02:35:40;;;;;;;12.23;7.53;;;;;;;15.13;63.67;93643.97;5064288;28;20564;-53
2021/08/16 02:38:06;;;;;;;28.17;9.57;;;;;;;15.08;63.71;93641.41;5066570;28;20383;-57
2021/08/16 02:40:31;;;;;;;10.00;7.13;;;;;;;15.03;62.88;93645.91;5066587;28;20070;-57
2021/08/16 02:42:57;;;;;;;10.60;7.03;;;;;;;14.90;64.00;93645.53;5066258;28;20028;-57
2021/08/16 02:45:22;;;;;;;11.85;8.00;;;;;;;14.80;64.17;93642.66;5066528;28;20021;-57
2021/08/16 02:47:48;;;;;;;8.90;7.68;;;;;;;14.80;64.10;93647.47;5066452;28;20462;-58
2021/08/16 02:50:13;;;;;;;10.02;6.78;;;;;;;14.78;63.80;93648.06;5066403;28;20604;-58
2021/08/16 02:52:39;;;;;;;8.55;6.78;;;;;;;14.70;63.96;93644.63;5066377;28;20122;-57
2021/08/16 02:55:05;;;;;;;9.95;6.75;;;;;;;14.63;63.98;93650.25;5065706;28;20021;-57
2021/08/16 02:57:30;;;;;;;7.57;6.63;;;;;;;14.55;63.68;93642.00;5066147;28;20024;-59
2021/08/16 02:59:56;;;;;;;10.15;6.65;;;;;;;14.65;63.59;93650.41;5066206;28;20417;-59
2021/08/16 03:02:22;;;;;;;8.82;6.97;;;;;;;14.69;63.31;93648.69;5066269;28;20029;-59
2021/08/16 03:04:48;;;;;;;8.48;7.65;;;;;;;14.61;63.69;93645.25;5065845;28;20033;-59
2021/08/16 03:07:13;;;;;;;7.30;6.28;;;;;;;14.61;63.98;93645.25;5065818;28;20103;-59
2021/08/16 03:09:39;;;;;;;7.00;6.30;;;;;;;14.58;64.16;93645.66;5062547;28;20021;-59
2021/08/16 03:12:05;;;;;;;8.63;5.95;;;;;;;14.68;63.57;93654.84;5060105;28;20052;-59
2021/08/16 03:14:30;;;;;;;9.82;6.22;;;;;;;14.62;63.32;93651.56;5052525;28;20083;-59
2021/08/16 03:16:55;;;;;;;7.75;6.60;;;;;;;14.49;63.84;93654.66;5051316;28;20036;-59
2021/08/16 03:19:21;;;;;;;9.00;7.68;;;;;;;14.42;63.33;93654.13;5051866;28;20087;-59
2021/08/16 03:21:46;;;;;;;10.55;8.15;;;;;;;14.42;63.40;93647.84;5052184;28;20021;-59
2021/08/16 03:24:12;;;;;;;7.85;7.05;;;;;;;14.34;63.51;93650.69;5052285;28;20025;-58
2021/08/16 03:26:37;;;;;;;12.25;7.95;;;;;;;14.15;64.34;93644.91;5052845;28;20108;-58
2021/08/16 03:29:04;;;;;;;11.75;7.60;;;;;;;14.28;63.79;93644.59;5052982;28;20056;-58
2021/08/16 03:31:29;;;;;;;17.85;7.00;;;;;;;14.17;64.15;93644.31;5052334;28;20029;-58
2021/08/16 03:33:55;;;;;;;9.05;7.53;;;;;;;14.17;64.24;93644.31;5052820;28;20082;-59
2021/08/16 03:36:20;;;;;;;11.25;7.30;;;;;;;14.19;64.52;93650.03;5052166;28;20536;-59
2021/08/16 03:38:45;;;;;;;14.38;6.70;;;;;;;14.20;64.65;93643.19;5051575;28;20395;-59
2021/08/16 03:41:11;;;;;;;34.75;7.38;;;;;;;14.19;64.08;93647.25;5050716;28;20029;-59
2021/08/16 03:43:37;;;;;;;13.88;7.22;;;;;;;14.22;64.32;93648.91;5051131;28;20036;-59
2021/08/16 03:46:02;;;;;;;23.30;7.35;;;;;;;14.21;65.08;93661.31;5051526;28;20024;-59
2021/08/16 03:48:28;;;;;;;19.88;8.10;;;;;;;14.12;64.30;93657.13;5052446;28;20033;-59
2021/08/16 03:50:53;;;;;;;19.02;15.07;;;;;;;13.97;64.12;93667.63;5052477;28;20029;-59
2021/08/16 03:53:19;;;;;;;22.75;16.20;;;;;;;13.95;64.00;93668.16;5052096;28;20430;-59
2021/08/16 03:55:44;;;;;;;35.28;31.23;;;;;;;13.92;64.10;93661.00;5052452;28;20029;-59
2021/08/16 03:58:09;;;;;;;32.58;27.85;;;;;;;13.97;64.25;93657.25;5052125;28;20477;-59
2021/08/16 04:00:35;;;;;;;15.85;12.10;;;;;;;13.95;64.28;93661.88;5051991;28;20053;-59
2021/08/16 04:03:01;;;;;;;15.02;11.18;;;;;;;13.89;65.04;93673.22;5052318;28;20040;-59
2021/08/16 04:05:27;;;;;;;15.07;10.75;;;;;;;13.91;64.49;93656.72;5052087;28;20472;-59
2021/08/16 04:07:52;;;;;;;9.38;8.48;;;;;;;13.91;64.89;93675.41;5051947;28;20032;-59
2021/08/16 04:10:19;;;;;;;11.10;8.43;;;;;;;13.84;65.40;93668.63;5051509;28;20025;-59
2021/08/16 04:12:45;;;;;;;11.80;8.57;;;;;;;13.84;65.39;93671.38;5051631;28;20045;-58
2021/08/16 04:15:13;;;;;;;10.77;8.27;;;;;;;13.88;65.20;93668.25;5050636;28;20032;-58
2021/08/16 04:17:38;;;;;;;12.77;8.32;;;;;;;13.79;65.61;93666.06;5050925;28;20053;-58
2021/08/16 04:20:05;;;;;;;9.57;7.97;;;;;;;13.79;65.64;93671.63;5051962;28;20118;-55
2021/08/16 04:22:31;;;;;;;10.20;8.25;;;;;;;13.92;65.40;93661.00;5051648;28;20029;-58
2021/08/16 04:24:56;;;;;;;10.15;7.82;;;;;;;14.05;65.59;93671.81;5050648;28;20021;-58
2021/08/16 04:27:22;;;;;;;15.43;7.90;;;;;;;14.07;65.84;93674.75;5051607;28;20032;-58
2021/08/16 04:29:47;;;;;;;12.93;7.40;;;;;;;14.05;64.94;93671.81;5051533;28;20091;-58
2021/08/16 04:32:12;;;;;;;7.40;6.68;;;;;;;14.05;64.98;93668.31;5051766;28;20034;-58
2021/08/16 04:34:38;;;;;;;8.57;7.57;;;;;;;14.01;65.77;93665.91;5051538;28;20024;-57
2021/08/16 04:37:03;;;;;;;10.75;7.65;;;;;;;14.14;65.97;93662.13;5051703;28;20098;-58
2021/08/16 04:39:29;;;;;;;14.82;7.25;;;;;;;14.25;65.88;93658.91;5051601;28;20037;-58
2021/08/16 04:41:54;;;;;;;10.77;6.57;;;;;;;14.28;66.11;93655.72;5050038;28;20036;-58
2021/08/16 04:44:20;;;;;;;8.50;7.40;;;;;;;14.35;66.66;93654.94;5051470;28;20024;-57
2021/08/16 04:46:45;;;;;;;7.85;6.72;;;;;;;14.35;65.87;93643.09;5051143;28;20021;-57
2021/08/16 04:49:11;;;;;;;10.02;8.45;;;;;;;14.48;65.59;93651.13;5051186;28;20056;-60
2021/08/16 04:51:36;;;;;;;9.73;7.57;;;;;;;14.54;65.18;93651.63;5051375;28;20025;-59
2021/08/16 04:54:02;;;;;;;11.15;8.38;;;;;;;14.64;65.50;93655.22;5051338;28;20565;-59
2021/08/16 04:56:27;;;;;;;12.15;8.00;;;;;;;14.67;65.54;93658.91;5050995;28;20087;-59
2021/08/16 04:58:52;;;;;;;11.00;7.65;;;;;;;14.63;66.26;93630.78;5051023;28;20032;-59
2021/08/16 05:01:18;;;;;;;11.10;8.40;;;;;;;14.83;65.92;93658.19;5049412;28;20040;-58
2021/08/16 05:03:43;;;;;;;7.75;6.88;;;;;;;14.94;65.43;93666.03;5031050;28;20040;-61
2021/08/16 05:06:09;;;;;;;20.02;10.15;;;;;;;15.04;66.24;93652.97;5030941;28;20026;-60
2021/08/16 05:08:36;;;;;;;22.67;11.27;;;;;;;15.13;65.87;93659.91;5030894;28;20029;-60
2021/08/16 05:11:03;;;;;;;24.20;14.65;;;;;;;15.20;65.91;93667.44;5050106;28;20052;-60
2021/08/16 05:13:28;;;;;;;43.72;21.80;;;;;;;15.35;66.06;93661.69;5050534;28;20565;-60
2021/08/16 05:15:54;;;;;;;49.63;30.35;;;;;;;15.34;66.81;93665.03;5050960;28;20071;-61
2021/08/16 05:18:19;;;;;;;49.08;36.88;;;;;;;15.39;66.42;93664.78;5049509;28;20421;-60
2021/08/16 05:20:45;;;;;;;57.40;38.83;;;;;;;15.56;65.94;93655.69;5050762;28;20032;-60
2021/08/16 05:23:10;;;;;;;46.03;32.50;;;;;;;15.57;66.52;93646.75;5050593;28;20429;-60
2021/08/16 05:25:36;;;;;;;45.83;34.25;;;;;;;15.68;66.60;93657.38;5049228;28;20119;-60
2021/08/16 05:28:01;;;;;;;37.25;25.48;;;;;;;15.79;66.42;93656.13;5050548;28;20021;-59
2021/08/16 05:30:27;;;;;;;22.33;17.35;;;;;;;15.89;66.29;93654.13;5050128;28;20040;-60
2021/08/16 05:32:52;;;;;;;18.30;13.40;;;;;;;16.00;65.80;93656.38;5050109;28;20104;-60
2021/08/16 05:35:18;;;;;;;20.08;12.43;;;;;;;16.14;65.88;93660.25;5050039;28;20032;-60
2021/08/16 05:37:43;;;;;;;20.20;10.63;;;;;;;16.24;65.93;93655.44;5049934;28;20414;-59
2021/08/16 05:40:10;;;;;;;10.82;7.85;;;;;;;16.30;65.39;93650.34;5046898;28;20020;-59
2021/08/16 05:42:35;;;;;;;12.85;7.13;;;;;;;16.40;64.75;93655.94;5050113;28;20028;-60
2021/08/16 05:45:03;;;;;;;8.88;7.97;;;;;;;16.51;65.01;93647.06;5050127;28;20025;-60
2021/08/16 05:47:29;;;;;;;7.50;6.72;;;;;;;16.58;64.55;93658.09;5047017;28;20066;-59
2021/08/16 05:49:54;;;;;;;8.52;6.68;;;;;;;16.70;63.88;93660.31;5048588;28;20118;-60
2021/08/16 05:52:20;;;;;;;9.55;6.82;;;;;;;16.88;63.49;93658.84;5050121;28;20043;-60
2021/08/16 05:54:45;;;;;;;12.85;6.57;;;;;;;16.99;63.11;93659.03;5050433;28;20028;-59
2021/08/16 05:57:11;;;;;;;12.70;7.65;;;;;;;17.05;63.33;93655.94;5049638;28;20033;-60
2021/08/16 05:59:36;;;;;;;10.90;6.80;;;;;;;17.16;63.35;93661.69;5049919;28;20021;-60
2021/08/16 06:02:02;;;;;;;13.38;6.28;;;;;;;17.24;62.82;93653.88;5049596;28;20033;-60
2021/08/16 06:04:27;;;;;;;11.05;7.00;;;;;;;17.38;62.17;93654.94;5049458;28;20410;-59
2021/08/16 06:06:53;;;;;;;10.70;6.40;;;;;;;17.47;61.86;93655.50;5049717;28;20079;-60
2021/08/16 06:09:18;;;;;;;10.73;5.38;;;;;;;17.59;61.24;93648.00;5049872;28;20021;-60
2021/08/16 06:11:44;;;;;;;12.48;6.25;;;;;;;17.75;60.56;93658.28;5049156;28;20045;-60
2021/08/16 06:14:09;;;;;;;10.40;5.82;;;;;;;17.98;61.32;93646.59;5049800;28;20025;-60
2021/08/16 06:16:34;;;;;;;7.60;5.68;;;;;;;18.23;59.93;93654.59;5049747;28;20021;-60
2021/08/16 06:19:00;;;;;;;5.63;4.88;;;;;;;18.40;58.25;93652.34;5049956;28;20078;-60
2021/08/16 06:21:26;;;;;;;7.05;4.93;;;;;;;18.63;59.85;93660.19;5050152;28;20029;-60
2021/08/16 06:23:51;;;;;;;5.90;5.30;;;;;;;18.61;58.01;93643.25;5050184;28;20029;-60
2021/08/16 06:26:18;;;;;;;9.45;5.70;;;;;;;18.83;57.95;93655.94;5049779;28;20064;-61
2021/08/16 06:28:43;;;;;;;31.35;6.85;;;;;;;18.95;57.07;93659.53;5049802;28;20032;-58
2021/08/16 06:31:09;;;;;;;6.13;4.75;;;;;;;19.17;54.70;93660.28;5049478;28;20029;-58
2021/08/16 06:33:37;;;;;;;9.30;5.07;;;;;;;19.29;55.38;93658.28;5049410;28;20029;-58
2021/08/16 06:36:05;;;;;;;17.13;6.68;;;;;;;19.41;55.86;93664.69;5049782;28;20064;-58
2021/08/16 06:38:30;;;;;;;9.50;4.57;;;;;;;19.52;55.01;93666.81;5049732;28;20044;-58
2021/08/16 06:40:57;;;;;;;17.85;6.28;;;;;;;19.66;54.44;93673.34;5049628;28;20024;-58
2021/08/16 06:43:25;;;;;;;6.13;5.15;;;;;;;19.81;54.06;93672.16;5049721;28;20113;-58
2021/08/16 06:45:51;;;;;;;5.85;5.18;;;;;;;19.93;52.86;93672.91;5049474;28;20034;-58
2021/08/16 06:48:17;;;;;;;7.22;5.32;;;;;;;20.07;51.97;93666.16;5052630;28;20052;-58
2021/08/16 06:50:43;;;;;;;5.18;4.45;;;;;;;20.19;50.76;93666.88;5053478;28;20100;-58
2021/08/16 06:53:11;;;;;;;17.52;6.45;;;;;;;20.38;51.52;93661.06;5053317;28;20032;-58
2021/08/16 06:55:37;;;;;;;10.80;5.15;;;;;;;20.44;51.16;93660.72;5051072;28;20035;-58
2021/08/16 06:58:03;;;;;;;5.03;4.25;;;;;;;20.42;51.37;93663.41;5052898;28;20493;-58
2021/08/16 07:00:28;;;;;;;5.50;4.68;;;;;;;20.56;51.14;93653.03;5052846;28;20036;-58
2021/08/16 07:02:53;;;;;;;8.05;5.22;;;;;;;20.76;51.89;93656.31;5050701;28;20692;-58
2021/08/16 07:05:19;;;;;;;5.90;4.60;;;;;;;20.79;51.21;93650.22;5049881;28;20029;-58
2021/08/16 07:07:47;;;;;;;7.93;4.57;;;;;;;20.92;50.55;93649.59;5053025;28;20025;-60
2021/08/16 07:10:12;;;;;;;7.13;4.50;;;;;;;21.03;49.62;93643.25;5050120;28;20028;-60
2021/08/16 07:12:38;;;;;;;5.60;4.65;;;;;;;21.29;49.22;93651.75;5052554;28;20553;-60
2021/08/16 07:15:03;;;;;;;6.47;4.22;;;;;;;21.42;48.45;93649.00;5052575;28;20029;-59
2021/08/16 07:17:29;;;;;;;7.70;5.53;;;;;;;21.72;48.28;93647.19;5052689;28;20045;-59
2021/08/16 07:19:54;;;;;;;7.80;7.03;;;;;;;21.88;48.42;93640.41;5052018;28;20457;-58
2021/08/16 07:22:20;;;;;;;7.15;4.70;;;;;;;22.09;46.56;93644.34;5048500;28;20037;-59
2021/08/16 07:24:45;;;;;;;7.57;4.45;;;;;;;22.55;46.33;93646.81;5051423;28;20505;-58
2021/08/16 07:27:11;;;;;;;6.20;4.38;;;;;;;23.21;45.05;93643.94;5050655;28;20028;-58
2021/08/16 07:29:37;;;;;;;6.38;4.10;;;;;;;24.83;40.48;93641.81;5051248;28;20151;-58
2021/08/16 07:32:02;;;;;;;5.28;3.85;;;;;;;26.42;36.52;93644.91;5050980;28;20463;-59
2021/08/16 07:34:28;;;;;;;7.03;3.70;;;;;;;28.43;34.32;93649.88;5051334;28;20056;-59
2021/08/16 07:36:54;;;;;;;4.43;3.97;;;;;;;29.78;30.29;93644.47;5049705;28;20558;-58
2021/08/16 07:39:44;;;;;;;3.88;3.58;;;;;;;31.20;28.48;93649.22;5051517;28;20119;-57
2021/08/16 07:42:09;;;;;;;4.15;3.22;;;;;;;30.87;25.98;93649.94;5051739;28;20108;-58
2021/08/16 07:44:41;;;;;;;3.72;3.15;;;;;;;32.50;25.64;93642.34;5052058;28;20162;-58
2021/08/16 07:47:07;;;;;;;3.92;3.05;;;;;;;34.68;22.08;93639.78;5051232;28;20044;-57
2021/08/16 07:49:32;;;;;;;4.97;3.20;;;;;;;36.30;20.38;93636.13;5052263;28;20029;-58
2021/08/16 07:51:58;;;;;;;6.32;3.70;;;;;;;35.52;21.13;93638.84;5052134;28;20563;-57
2021/08/16 07:54:24;;;;;;;4.25;3.28;;;;;;;36.49;19.03;93642.63;5051682;28;20148;-57
2021/08/16 07:56:50;;;;;;;5.47;3.20;;;;;;;35.16;19.69;93641.53;5051728;28;20116;-56
2021/08/16 07:59:16;;;;;;;4.22;2.88;;;;;;;34.04;21.48;93637.13;5051519;28;20032;-57
2021/08/16 08:01:42;;;;;;;2.88;2.67;;;;;;;33.81;21.22;93632.56;5051867;28;20028;-58
2021/08/16 08:04:07;;;;;;;5.85;3.30;;;;;;;33.95;23.26;93632.72;5051934;28;20394;-58
2021/08/16 08:06:33;;;;;;;5.95;3.28;;;;;;;35.84;20.54;93626.72;5052267;28;20044;-56
2021/08/16 08:08:58;;;;;;;3.88;3.33;;;;;;;36.80;18.10;93632.53;5051217;28;20029;-57
2021/08/16 08:11:24;;;;;;;4.15;3.00;;;;;;;35.89;18.39;93628.16;5051595;28;20025;-56
2021/08/16 08:13:49;;;;;;;3.67;3.25;;;;;;;34.74;19.65;93630.53;5051413;28;20017;-56
2021/08/16 08:16:15;;;;;;;4.35;3.03;;;;;;;34.57;19.66;93623.22;5051401;28;20049;-55
2021/08/16 08:18:40;;;;;;;3.15;2.85;;;;;;;34.72;18.77;93636.22;5051647;28;20021;-56
2021/08/16 08:21:06;;;;;;;6.05;3.40;;;;;;;34.68;18.86;93613.25;5051521;28;20013;-58
2021/08/16 08:23:31;;;;;;;5.50;3.00;;;;;;;35.95;17.67;93622.44;5051476;28;20031;-56
2021/08/16 08:25:57;;;;;;;3.85;3.20;;;;;;;37.25;16.62;93621.66;5051270;28;20053;-57
2021/08/16 08:28:22;;;;;;;3.35;3.00;;;;;;;36.98;16.85;93629.63;5051425;28;20020;-56
2021/08/16 08:30:48;;;;;;;2.97;2.58;;;;;;;37.99;14.37;93628.53;5051429;28;20681;-56
2021/08/16 08:33:15;;;;;;;4.68;2.78;;;;;;;37.63;15.08;93624.38;5051305;28;20025;-56
2021/08/16 08:35:48;;;;;;;2.95;2.65;;;;;;;38.61;13.95;93630.97;5051318;28;20429;-57
2021/08/16 08:38:14;;;;;;;3.63;2.60;;;;;;;37.84;14.69;93622.84;5051292;28;20032;-56
2021/08/16 08:40:40;;;;;;;3.05;2.05;;;;;;;38.26;13.98;93621.16;5043621;28;20101;-56
2021/08/16 08:43:11;;;;;;;3.00;2.55;;;;;;;38.42;14.99;93621.72;5047444;28;20410;-56
2021/08/16 08:45:38;;;;;;;3.13;2.58;;;;;;;38.27;14.61;93614.63;5050465;28;20047;-56
2021/08/16 08:48:04;;;;;;;5.88;2.42;;;;;;;39.51;13.94;93619.94;5049531;28;20106;-56
2021/08/16 08:50:30;;;;;;;3.70;2.33;;;;;;;38.20;13.33;93604.59;5050581;28;20009;-56
2021/08/16 08:53:00;;;;;;;2.38;2.17;;;;;;;37.77;13.37;93614.94;5050613;28;20024;-55
2021/08/16 08:55:25;;;;;;;3.67;2.10;;;;;;;38.96;13.06;93606.13;5050714;28;20035;-56
2021/08/16 08:57:51;;;;;;;2.30;2.10;;;;;;;40.22;12.97;93600.19;5048639;28;20025;-56
2021/08/16 09:00:18;;;;;;;3.50;2.17;;;;;;;41.28;10.70;93597.66;5028927;28;20123;-55
2021/08/16 09:03:01;;;;;;;2.30;2.10;;;;;;;42.09;11.39;93585.09;5030892;28;20049;-56
2021/08/16 09:05:27;;;;;;;7.75;3.55;;;;;;;41.32;10.71;93600.50;5030450;28;20029;-56
2021/08/16 09:07:57;;;;;;;4.82;1.83;;;;;;;38.80;11.48;93599.78;5048754;28;20040;-56
2021/08/16 09:10:24;;;;;;;2.03;1.70;;;;;;;37.12;11.72;93589.28;5046583;28;20406;-57
2021/08/16 09:12:50;;;;;;;3.72;1.30;;;;;;;36.91;12.18;93590.06;5049657;28;20037;-55
2021/08/16 09:15:21;;;;;;;4.15;1.40;;;;;;;35.42;11.57;93590.69;5048643;28;20032;-57
2021/08/16 09:17:47;;;;;;;1.85;1.30;;;;;;;36.11;12.10;93587.97;5046231;28;20466;-56
2021/08/16 09:20:18;;;;;;;3.20;1.45;;;;;;;35.69;11.97;93591.50;5049860;28;20017;-56
2021/08/16 09:23:13;;;;;;;2.10;1.70;;;;;;;36.12;11.96;93584.38;5050038;28;20019;-56
2021/08/16 09:25:39;;;;;;;3.53;2.00;;;;;;;37.52;12.68;93581.94;5049396;28;20024;-56
2021/08/16 09:28:06;;;;;;;1.92;1.50;;;;;;;39.08;9.96;93585.03;5048458;28;20512;-57
2021/08/16 09:30:37;;;;;;;1.35;1.20;;;;;;;38.39;9.38;93591.47;5049902;28;20465;-57
2021/08/16 09:33:17;;;;;;;1.42;1.33;;;;;;;38.08;10.26;93563.56;5049956;28;20021;-56
2021/08/16 09:35:48;;;;;;;1.65;1.50;;;;;;;36.57;12.14;93582.22;5049666;28;20446;-56
2021/08/16 09:38:13;;;;;;;39.45;5.13;;;;;;;36.72;11.38;93575.00;5050045;28;20021;-57
2021/08/16 09:40:39;;;;;;;2.50;1.40;;;;;;;36.72;10.89;93575.00;5049976;28;20025;-56
2021/08/16 09:43:04;;;;;;;2.95;1.52;;;;;;;36.57;11.02;93570.72;5047203;28;20020;-56
2021/08/16 09:45:37;;;;;;;1.45;1.20;;;;;;;37.20;9.79;93569.13;5049914;28;20032;-56
2021/08/16 09:48:04;;;;;;;2.03;1.60;;;;;;;37.61;12.27;93571.81;5045559;28;20124;-56
2021/08/16 09:50:39;;;;;;;2.38;1.67;;;;;;;37.18;11.62;93566.25;5049908;28;20021;-56
2021/08/16 09:53:16;;;;;;;3.50;2.00;;;;;;;37.63;12.78;93568.91;5039341;28;20036;-55
2021/08/16 09:55:44;;;;;;;2.30;1.88;;;;;;;38.32;12.28;93567.00;5044991;28;20067;-55
2021/08/16 09:58:13;;;;;;;;;;;;;;;37.97;12.02;93566.53;5047606;28;20048;-56
2021/08/16 10:00:39;;;;;;;3.53;1.75;;;;;;;37.91;11.25;93554.34;5046923;28;20031;-56
2021/08/16 10:03:07;;;;;;;1.95;1.50;;;;;;;38.52;11.26;93571.88;5044394;28;20110;-55
2021/08/16 10:05:35;;;;;;;1.73;1.60;;;;;;;38.26;10.73;93534.63;5046915;28;20017;-56
2021/08/16 10:08:02;;;;;;;3.60;1.65;;;;;;;38.74;9.74;93557.28;5047276;28;20512;-57
2021/08/16 10:10:28;;;;;;;3.08;1.67;;;;;;;38.42;10.08;93558.25;5014377;28;20433;-56
2021/08/16 10:12:53;;;;;;;5.57;1.77;;;;;;;38.47;10.77;93553.16;5046727;28;20426;-56
2021/08/16 10:15:19;;;;;;;5.32;1.50;;;;;;;39.37;10.30;93539.94;5045759;28;20048;-56
2021/08/16 10:17:45;;;;;;;1.55;1.45;;;;;;;40.04;10.57;93546.25;5045861;28;20490;-56
2021/08/16 10:20:11;;;;;;;3.28;1.60;;;;;;;39.62;9.49;93537.44;5047499;28;20111;-55
2021/08/16 10:22:40;;;;;;;5.90;1.92;;;;;;;39.32;9.52;93542.16;5049114;28;20494;-56
2021/08/16 10:25:14;;;;;;;3.45;1.55;;;;;;;39.00;10.24;93536.03;5051468;28;20028;-55
2021/08/16 10:27:40;;;;;;;1.52;1.42;;;;;;;38.99;9.21;93531.72;5051539;28;20033;-56
2021/08/16 10:30:08;;;;;;;1.67;1.58;;;;;;;38.97;9.92;93525.97;5051346;28;20162;-56
2021/08/16 10:32:34;;;;;;;1.70;1.45;;;;;;;38.90;9.63;93528.22;5051257;28;20056;-56
2021/08/16 10:35:12;;;;;;;2.15;1.38;;;;;;;39.19;9.62;93528.63;5051164;28;20044;-57
2021/08/16 10:37:39;;;;;;;;;;;;;;;38.83;10.49;93523.25;5051387;28;20540;-56
2021/08/16 10:40:22;;;;;;;2.65;1.70;;;;;;;39.42;10.84;93523.28;5050881;28;19932;-56
2021/08/16 10:42:51;;;;;;;1.67;1.40;;;;;;;39.65;9.99;93518.63;5050649;28;20124;-56
2021/08/16 10:45:26;;;;;;;4.78;1.65;;;;;;;39.46;9.75;93512.38;5049822;28;20029;-57
2021/08/16 10:48:00;;;;;;;3.25;1.52;;;;;;;38.61;10.15;93513.38;5050658;28;20520;-56
2021/08/16 10:50:25;;;;;;;4.90;1.67;;;;;;;39.67;10.12;93496.19;5050763;28;20108;-56
2021/08/16 10:53:11;;;;;;;5.20;1.60;;;;;;;39.59;10.00;93510.03;5050937;28;20103;-56
2021/08/16 10:55:38;;;;;;;1.40;1.30;;;;;;;38.10;10.53;93503.03;5051247;28;20021;-56
2021/08/16 10:58:10;;;;;;;1.98;1.75;;;;;;;38.13;10.55;93501.53;5051035;28;20021;-55
2021/08/16 11:00:40;;;;;;;2.65;1.70;;;;;;;38.92;9.86;93501.50;5050930;28;20111;-56
2021/08/16 11:03:07;;;;;;;2.28;1.52;;;;;;;38.86;10.31;93493.63;5052066;28;20460;-56
2021/08/16 11:05:37;;;;;;;1.55;1.45;;;;;;;38.93;10.28;93494.97;5052529;28;20032;-55
2021/08/16 11:08:04;;;;;;;3.00;1.63;;;;;;;38.27;9.98;93487.03;5052988;28;20047;-56
2021/08/16 11:10:41;;;;;;;2.22;1.90;;;;;;;38.80;10.14;93487.91;5036919;28;20037;-56
2021/08/16 11:13:18;;;;;;;4.28;1.38;;;;;;;37.98;10.08;93486.53;5032682;28;20124;-56
2021/08/16 11:15:44;;;;;;;4.85;1.95;;;;;;;37.46;10.80;93489.78;5032618;28;20029;-57
2021/08/16 11:18:20;;;;;;;2.28;1.58;;;;;;;37.32;10.63;93481.91;5032827;28;20026;-55
2021/08/16 11:20:54;;;;;;;8.35;1.40;;;;;;;37.89;10.45;93473.63;5032831;28;20036;-56
2021/08/16 11:23:21;;;;;;;5.05;1.55;;;;;;;38.55;10.41;93457.88;5032734;28;20433;-56
2021/08/16 11:25:52;;;;;;;3.13;1.40;;;;;;;37.86;9.94;93472.94;5032503;28;20078;-57
2021/08/16 11:28:26;;;;;;;1.25;1.15;;;;;;;37.40;10.70;93469.66;5032396;28;20053;-57
2021/08/16 11:31:06;;;;;;;2.10;1.13;;;;;;;37.62;9.97;93469.53;5032137;28;20510;-58
2021/08/16 11:33:32;;;;;;;1.70;1.40;;;;;;;36.98;10.26;93465.56;5031757;28;20076;-56
2021/08/16 11:36:14;;;;;;;1.92;1.30;;;;;;;37.54;10.33;93470.28;5032607;28;20030;-56
2021/08/16 11:38:42;;;;;;;6.68;1.90;;;;;;;38.30;10.77;93466.06;5032072;28;20029;-56
2021/08/16 11:41:15;;;;;;;1.60;1.50;;;;;;;38.02;11.12;93454.78;5052136;28;20506;-56
2021/08/16 11:43:41;;;;;;;1.65;1.23;;;;;;;37.81;10.77;93459.31;5052076;28;20029;-56
2021/08/16 11:46:15;;;;;;;1.48;1.38;;;;;;;38.01;9.86;93458.41;5052349;28;20040;-56
2021/08/16 11:48:51;;;;;;;1.48;1.38;;;;;;;37.90;10.54;93429.66;5052283;28;20107;-54